Georgitsi — V7VY5 — position and weather

sailwx.info

Track history (hours):
 
Tides and Currents Weather Stations Pressure Air Temp Water Temp Dewpoint Dewpoint Depression Visibility Wind Speed Wind Dir Waves Ship Positions

Georgitsi

Last reported at 2017-Sep-20 21:49 UTC. Time now 2017-Sep-21 09:02 UTC.
Position N 00°11' W 050°46'.

Length 229 m; draft 11.6 m.

Type: Cargo ship. MMSI: 538004242.

Date/timePositionNaut miles runAvg speedWind from/ knotsBaromVisibWave heightAir tempDewpointWater temp
2017-Sep-20 21:49N 00°11' W 050°46'2 7.3
2017-Sep-20 21:30N 00°11' W 050°48'4 8.3
2017-Sep-20 21:00N 00°10' W 050°52'5 9.3
2017-Sep-20 20:30N 00°08' W 050°56'4 8.5
2017-Sep-20 20:00N 00°05' W 050°59'4 8.6
2017-Sep-20 19:31N 00°01' W 051°01'8 6.0
2017-Sep-20 18:13S 00°04' W 051°06'0 1.9
2017-Sep-20 18:00S 00°04' W 051°06'1 3.0
2017-Sep-20 17:30S 00°03' W 051°05'5 9.3
2017-Sep-20 17:00N 00°00' W 051°01'4 8.1
2017-Sep-20 16:30S 00°04' W 051°00'510.7
2017-Sep-20 16:00S 00°09' W 051°01'331 6.8
2017-Sep-18 14:58S 01°28' W 056°23'0 0.0
2017-Sep-18 14:28S 01°28' W 056°23'0 0.0
2017-Sep-18 13:52S 01°28' W 056°23'0 0.0
2017-Sep-18 13:28S 01°28' W 056°23'0 0.0
2017-Sep-18 12:58S 01°28' W 056°23'0 0.0
2017-Sep-18 12:25S 01°28' W 056°23'0 0.0
2017-Sep-18 11:58S 01°28' W 056°23'0 0.0
2017-Sep-18 11:28S 01°28' W 056°23'0 0.0
2017-Sep-18 10:58S 01°28' W 056°23'0 0.0
2017-Sep-18 10:28S 01°28' W 056°23'0 0.0
2017-Sep-18 09:58S 01°28' W 056°23'0 0.0
2017-Sep-18 09:28S 01°28' W 056°23'0 0.0
2017-Sep-18 08:58S 01°28' W 056°23'0 0.0
2017-Sep-18 08:28S 01°28' W 056°23'0 0.0
2017-Sep-18 07:58S 01°28' W 056°23'0 0.0
2017-Sep-18 07:28S 01°28' W 056°23'0 0.0
2017-Sep-18 06:55S 01°28' W 056°23'0 0.0
2017-Sep-18 06:28S 01°28' W 056°23'0 0.0
2017-Sep-18 05:58S 01°28' W 056°23'0 0.0
2017-Sep-18 05:28S 01°28' W 056°23'0 0.0
2017-Sep-18 04:55S 01°28' W 056°23'0 0.0
2017-Sep-18 04:28S 01°28' W 056°23'0 0.0
2017-Sep-18 03:58S 01°28' W 056°23'0 0.0
2017-Sep-18 03:22S 01°28' W 056°23'0 0.0
2017-Sep-18 02:58S 01°28' W 056°23'0 0.0
2017-Sep-18 02:25S 01°28' W 056°23'0 0.0
2017-Sep-18 01:58S 01°28' W 056°23'0 0.0
2017-Sep-18 01:25S 01°28' W 056°23'0 0.0
2017-Sep-18 00:58S 01°28' W 056°23'0 0.0
2017-Sep-18 00:28S 01°28' W 056°23'0 0.0
2017-Sep-17 23:58S 01°28' W 056°23'0 0.0
2017-Sep-17 23:25S 01°28' W 056°23'0 0.0
2017-Sep-17 22:58S 01°28' W 056°23'0 0.0
2017-Sep-17 22:28S 01°28' W 056°23'0 0.0
2017-Sep-17 21:58S 01°28' W 056°23'0 0.0
2017-Sep-17 21:28S 01°28' W 056°23'0 0.0
2017-Sep-17 20:58S 01°28' W 056°23'0 0.0
2017-Sep-17 20:28S 01°28' W 056°23'0 0.0
2017-Sep-17 19:58S 01°28' W 056°23'0 0.0
2017-Sep-17 19:25S 01°28' W 056°23'0 0.0
2017-Sep-17 18:58S 01°28' W 056°23'0 0.0
2017-Sep-17 18:25S 01°28' W 056°23'0 0.0
2017-Sep-17 17:58S 01°28' W 056°23'0 0.0
2017-Sep-17 17:25S 01°28' W 056°23'0 0.0
2017-Sep-17 16:58S 01°28' W 056°23'0 0.0
2017-Sep-17 16:28S 01°28' W 056°23'0 0.0
2017-Sep-17 15:58S 01°28' W 056°23'0 0.0
2017-Sep-17 15:28S 01°28' W 056°23'0 0.0
2017-Sep-17 14:58S 01°28' W 056°23'0 0.0
2017-Sep-17 14:28S 01°28' W 056°23'0 0.0
2017-Sep-17 13:58S 01°28' W 056°23'0 0.0
2017-Sep-17 13:25S 01°28' W 056°23'0 0.0
2017-Sep-17 12:55S 01°28' W 056°23'0 0.0
2017-Sep-17 12:28S 01°28' W 056°23'0 0.0
2017-Sep-17 11:52S 01°28' W 056°23'0 0.0
2017-Sep-17 11:28S 01°28' W 056°23'0 0.0
2017-Sep-17 10:58S 01°28' W 056°23'0 0.0
2017-Sep-17 10:28S 01°28' W 056°23'0 0.0
2017-Sep-17 09:58S 01°28' W 056°23'0 0.0
2017-Sep-17 09:28S 01°28' W 056°23'0 0.0
2017-Sep-17 08:58S 01°28' W 056°23'0 0.0
2017-Sep-17 08:25S 01°28' W 056°23'0 0.0
2017-Sep-17 07:58S 01°28' W 056°23'0 0.0
2017-Sep-17 07:25S 01°28' W 056°23'0 0.1
2017-Sep-17 06:59S 01°28' W 056°23'1 2.1
2017-Sep-17 06:30S 01°28' W 056°22'0 0.3
2017-Sep-17 06:00S 01°28' W 056°22'0 0.0
2017-Sep-17 05:30S 01°28' W 056°22'0 0.0
2017-Sep-17 04:57S 01°28' W 056°22'0 0.0
2017-Sep-17 04:30S 01°28' W 056°22'0 0.0
2017-Sep-17 04:00S 01°28' W 056°22'0 0.0
2017-Sep-17 03:30S 01°28' W 056°22'0 0.0
2017-Sep-17 03:00S 01°28' W 056°22'0 0.0
2017-Sep-17 02:24S 01°28' W 056°22'0 0.0
2017-Sep-17 02:00S 01°28' W 056°22'0 0.0
2017-Sep-17 01:27S 01°28' W 056°22'0 0.0
2017-Sep-17 01:00S 01°28' W 056°22'0 0.0
2017-Sep-17 00:30S 01°28' W 056°22'0 0.0
2017-Sep-16 23:57S 01°28' W 056°22'0 0.0
2017-Sep-16 23:30S 01°28' W 056°22'0 0.0
2017-Sep-16 23:00S 01°28' W 056°22'0 0.0
2017-Sep-16 22:24S 01°28' W 056°22'0 0.0
2017-Sep-16 22:00S 01°28' W 056°22'0 0.0
2017-Sep-16 21:30S 01°28' W 056°22'0 0.0
2017-Sep-16 20:48S 01°28' W 056°22'0 0.0
2017-Sep-16 20:30S 01°28' W 056°22'0 0.0
2017-Sep-16 20:00S 01°28' W 056°22'0 0.0
2017-Sep-16 19:30S 01°28' W 056°22'0 0.0
2017-Sep-16 18:57S 01°28' W 056°22'0 0.0
2017-Sep-16 18:30S 01°28' W 056°22'0 0.0
2017-Sep-16 18:00S 01°28' W 056°22'0 0.0
2017-Sep-16 17:27S 01°28' W 056°22'0 0.0
2017-Sep-16 17:00S 01°28' W 056°22'0 0.0
2017-Sep-16 16:30S 01°28' W 056°22'0 0.0
2017-Sep-16 16:00S 01°28' W 056°22'0 0.0
2017-Sep-16 15:30S 01°28' W 056°22'0 0.0
2017-Sep-16 15:00S 01°28' W 056°22'0 0.0
2017-Sep-16 14:24S 01°28' W 056°22'0 0.0
2017-Sep-16 13:57S 01°28' W 056°22'0 0.0
2017-Sep-16 13:30S 01°28' W 056°22'0 0.0
2017-Sep-16 13:00S 01°28' W 056°22'0 0.0
2017-Sep-16 12:30S 01°28' W 056°22'0 0.0
2017-Sep-16 12:00S 01°28' W 056°22'0 0.0
2017-Sep-16 11:30S 01°28' W 056°22'0 0.0
2017-Sep-16 11:00S 01°28' W 056°22'0 0.0
2017-Sep-16 10:27S 01°28' W 056°22'0 0.0
2017-Sep-16 10:00S 01°28' W 056°22'0 0.1
2017-Sep-16 09:30S 01°28' W 056°22'1 2.5
2017-Sep-16 09:00S 01°28' W 056°20'5 9.5
2017-Sep-16 08:30S 01°31' W 056°17'5 9.2
2017-Sep-16 08:00S 01°31' W 056°13'510.7
2017-Sep-16 07:30S 01°31' W 056°07'713.1
2017-Sep-16 07:00S 01°33' W 056°01'714.3
2017-Sep-16 06:30S 01°39' W 055°58'714.3
2017-Sep-16 06:00S 01°45' W 055°54'289 9.8
2017-Sep-15 00:34S 00°14' W 051°19'115.4
2017-Sep-15 00:30S 00°14' W 051°18'612.5
2017-Sep-15 00:00S 00°09' W 051°14'611.2
2017-Sep-14 23:30S 00°07' W 051°09'4 8.6
2017-Sep-14 23:00S 00°04' W 051°06'2 4.7
2017-Sep-14 22:30S 00°02' W 051°04'4 7.1
2017-Sep-14 22:00N 00°00' W 051°01'1 2.3
2017-Sep-14 21:27N 00°00' W 051°00'0 0.0
2017-Sep-14 20:57N 00°00' W 051°00'0 0.0
2017-Sep-14 20:27N 00°00' W 051°00'0 0.0
2017-Sep-14 19:57N 00°00' W 051°00'0 0.0
2017-Sep-14 19:27N 00°00' W 051°00'0 0.0
2017-Sep-14 18:57N 00°00' W 051°00'0 0.0
2017-Sep-14 18:27N 00°00' W 051°00'0 0.0
2017-Sep-14 17:57N 00°00' W 051°00'0 0.0
2017-Sep-14 17:21N 00°00' W 051°00'0 0.0
2017-Sep-14 16:57N 00°00' W 051°00'1 1.1
2017-Sep-14 16:27S 00°00' W 051°00'1 1.1
2017-Sep-14 15:57N 00°00' W 051°00'0 0.6
2017-Sep-14 15:27N 00°00' W 050°60'0 0.9
2017-Sep-14 14:57N 00°00' W 051°00'0 0.1
2017-Sep-14 14:27N 00°00' W 051°00'0 0.2
2017-Sep-14 13:57S 00°00' W 051°00'0 0.0
2017-Sep-14 13:27S 00°00' W 051°00'0 0.0
2017-Sep-14 12:57S 00°00' W 051°00'0 0.0
2017-Sep-14 12:27S 00°00' W 051°00'0 0.0
2017-Sep-14 11:57S 00°00' W 051°00'0 0.0
2017-Sep-14 11:24S 00°00' W 051°00'0 0.0
2017-Sep-14 10:48S 00°00' W 051°00'0 0.0
2017-Sep-14 10:30S 00°00' W 051°00'0 0.4
2017-Sep-14 10:00N 00°00' W 051°00'0 0.2
2017-Sep-14 09:30N 00°00' W 051°00'0 0.0
2017-Sep-14 07:12N 00°00' W 051°00'0 0.0
2017-Sep-14 07:00N 00°00' W 051°00'0 0.0
2017-Sep-14 06:30N 00°00' W 051°00'0 0.0
2017-Sep-14 06:00N 00°00' W 051°00'0 0.0
2017-Sep-14 05:30N 00°00' W 051°00'0 0.0
2017-Sep-14 05:00N 00°00' W 051°00'0 0.0
2017-Sep-14 04:30N 00°00' W 051°00'0 0.1
2017-Sep-14 04:00N 00°00' W 051°00'0 0.1
2017-Sep-14 03:24N 00°00' W 051°00'0 0.2
2017-Sep-14 03:00N 00°00' W 051°00'0 0.1
2017-Sep-14 02:24N 00°00' W 051°00'0 0.2
2017-Sep-14 02:00S 00°00' W 051°00'0 0.1
2017-Sep-14 01:30S 00°00' W 051°00'0 0.0
2017-Sep-14 01:00S 00°00' W 051°00'4 7.5
2017-Sep-14 00:30S 00°04' W 051°00'4 6.4
2017-Sep-13 23:55S 00°00' W 051°00'0 0.0
2017-Sep-13 23:25S 00°00' W 051°00'0 0.0
2017-Sep-13 22:49S 00°00' W 051°00'0 0.1
2017-Sep-13 21:37N 00°00' W 051°00'0 0.3
2017-Sep-13 21:26N 00°00' W 051°00'0 0.2
2017-Sep-13 20:55N 00°00' W 051°00'0 0.1
2017-Sep-13 20:25N 00°00' W 051°00'0 0.0
2017-Sep-13 19:55N 00°00' W 051°00'0 0.0
2017-Sep-13 19:25N 00°00' W 051°00'0 0.0
2017-Sep-13 18:49N 00°00' W 051°00'0 0.0
2017-Sep-13 18:25N 00°00' W 051°00'0 0.0
2017-Sep-13 17:55N 00°00' W 051°00'0 0.0
2017-Sep-13 17:25N 00°00' W 051°00'0 0.0
2017-Sep-13 16:55N 00°00' W 051°00'0 0.0
2017-Sep-13 16:25N 00°00' W 051°00'0 0.0
2017-Sep-13 15:55N 00°00' W 051°00'0 0.0
2017-Sep-13 15:25N 00°00' W 051°00'0 0.0
2017-Sep-13 14:55N 00°00' W 051°00'0 0.2
2017-Sep-13 14:25N 00°00' W 051°00'0 0.2
2017-Sep-13 13:55N 00°00' W 051°00'0 0.1
2017-Sep-13 13:25S 00°00' W 051°00'0 0.0
2017-Sep-13 12:55S 00°00' W 051°00'0 0.1
2017-Sep-13 12:25S 00°00' W 051°00'0 0.0
2017-Sep-13 11:55S 00°00' W 051°00'0 0.0
2017-Sep-13 11:25S 00°00' W 051°00'0 0.0
2017-Sep-13 10:01S 00°00' W 051°00'0 0.0
2017-Sep-13 09:55S 00°00' W 051°00'0 0.0
2017-Sep-13 09:25S 00°00' W 051°00'0 0.1
2017-Sep-13 08:55S 00°00' W 051°00'0 0.1
2017-Sep-13 08:25N 00°00' W 051°00'0 0.3
2017-Sep-13 07:55N 00°00' W 051°00'0 0.1
2017-Sep-13 07:25N 00°00' W 051°00'0 0.0
2017-Sep-13 06:55N 00°00' W 051°00'0 0.0
2017-Sep-13 06:25N 00°00' W 051°00'0 0.0
2017-Sep-13 05:55N 00°00' W 051°00'0 0.0
2017-Sep-13 05:25N 00°00' W 051°00'0 0.0
2017-Sep-13 04:55N 00°00' W 051°00'0 0.0
2017-Sep-13 04:25N 00°00' W 051°00'0 0.0
2017-Sep-13 03:55N 00°00' W 051°00'0 0.0
2017-Sep-13 03:25N 00°00' W 051°00'0 0.0
2017-Sep-13 02:55N 00°00' W 051°00'0 0.2
2017-Sep-13 02:25N 00°00' W 051°00'0 0.2
2017-Sep-13 01:55N 00°00' W 051°00'0 0.1
2017-Sep-13 01:25N 00°00' W 051°00'0 0.1
2017-Sep-13 00:55S 00°00' W 051°00'0 0.0
2017-Sep-13 00:25S 00°00' W 051°00'0 0.2
2017-Sep-12 23:55S 00°00' W 051°00'0 0.1
2017-Sep-12 23:25S 00°00' W 051°00'0 0.0
2017-Sep-12 22:55S 00°00' W 051°00'0 0.0
2017-Sep-12 22:25S 00°00' W 051°00'0 0.6
2017-Sep-12 21:55N 00°00' W 051°00'0 0.6
2017-Sep-12 21:25S 00°00' W 051°00'0 0.0
2017-Sep-12 20:55S 00°00' W 051°00'0 0.5
2017-Sep-12 20:25N 00°00' W 051°00'0 0.3
2017-Sep-12 19:55N 00°00' W 051°00'0 0.1
2017-Sep-12 19:25N 00°00' W 051°00'0 0.0
2017-Sep-12 18:55N 00°00' W 051°00'0 0.0
2017-Sep-12 18:25N 00°00' W 051°00'0 0.0
2017-Sep-12 17:55N 00°00' W 051°00'0 0.0
2017-Sep-12 17:31N 00°00' W 051°00'0 0.2
2017-Sep-12 16:57N 00°00' W 051°00'0 0.3
2017-Sep-12 16:27N 00°00' W 051°00'0 0.3
2017-Sep-12 15:57N 00°00' W 051°00'0 0.0
2017-Sep-12 14:29N 00°00' W 051°00'0 0.3
2017-Sep-12 13:59N 00°00' W 051°00'0 0.3
2017-Sep-12 13:29N 00°00' W 051°00'0 0.2
2017-Sep-12 12:59N 00°00' W 051°00'0 0.2
2017-Sep-12 12:29N 00°00' W 051°00'0 0.2
2017-Sep-12 11:59S 00°00' W 051°00'0 0.1
2017-Sep-12 11:29S 00°00' W 051°00'0 0.1
2017-Sep-12 10:59S 00°00' W 051°00'0 0.0
2017-Sep-12 10:29S 00°00' W 051°00'0 0.0
2017-Sep-12 09:59S 00°00' W 051°00'0 0.0
2017-Sep-12 09:29S 00°00' W 051°00'0 0.0
2017-Sep-12 08:59S 00°00' W 051°00'0 0.1
2017-Sep-12 08:29S 00°00' W 051°00'0 0.1
2017-Sep-12 07:59S 00°00' W 051°00'0 0.1
2017-Sep-12 07:29N 00°00' W 051°00'0 0.4
2017-Sep-12 06:59N 00°00' W 051°00'0 0.1
2017-Sep-12 06:29N 00°00' W 051°00'0 0.0
2017-Sep-12 05:59N 00°00' W 051°00'0 0.0
2017-Sep-12 05:29N 00°00' W 051°00'0 0.0
2017-Sep-12 04:59N 00°00' W 051°00'0 0.0
2017-Sep-12 04:29N 00°00' W 051°00'0 0.2
2017-Sep-12 03:59N 00°00' W 051°00'0 0.0
2017-Sep-12 03:29N 00°00' W 051°00'0 0.0
2017-Sep-12 02:59N 00°00' W 051°00'0 0.0
2017-Sep-12 02:29N 00°00' W 051°00'0 0.0
2017-Sep-12 01:59N 00°00' W 051°00'0 0.1
2017-Sep-12 01:29N 00°00' W 051°00'0 0.1
2017-Sep-12 00:59N 00°00' W 051°00'2 3.6
2017-Sep-12 00:27S 00°01' W 050°59'2 3.3
2017-Sep-11 23:59S 00°01' W 051°00'1 1.9
2017-Sep-11 23:29S 00°00' W 051°00'0 0.0
2017-Sep-11 22:53S 00°00' W 051°00'0 0.0
2017-Sep-11 22:29S 00°00' W 051°00'0 0.0
2017-Sep-11 21:59S 00°00' W 051°00'0 0.1
2017-Sep-11 21:29S 00°00' W 051°00'0 0.0
2017-Sep-11 20:17S 00°00' W 051°00'0 0.3
2017-Sep-11 19:41N 00°00' W 051°00'0 0.9
2017-Sep-11 19:29S 00°00' W 051°00'0 0.4
2017-Sep-11 18:59N 00°00' W 051°00'0 0.2
2017-Sep-11 18:29N 00°00' W 051°00'0 0.1
2017-Sep-11 17:59N 00°00' W 051°00'0 0.0
2017-Sep-11 17:29N 00°00' W 051°00'0 0.0
2017-Sep-11 16:53N 00°00' W 051°00'0 0.0
2017-Sep-11 16:29N 00°00' W 051°00'0 0.0
2017-Sep-11 15:59N 00°00' W 051°00'0 0.0
2017-Sep-11 15:29N 00°00' W 051°00'0 0.0
2017-Sep-11 14:59N 00°00' W 051°00'0 0.0
2017-Sep-11 14:29N 00°00' W 051°00'0 0.0
2017-Sep-11 13:59N 00°00' W 051°00'0 0.0
2017-Sep-11 13:17N 00°00' W 051°00'0 0.0
2017-Sep-11 12:59N 00°00' W 051°00'0 0.0
2017-Sep-11 12:29N 00°00' W 051°00'0 0.2
2017-Sep-11 11:59N 00°00' W 051°00'0 0.4
2017-Sep-11 11:29S 00°00' W 051°00'0 0.1
2017-Sep-11 10:53S 00°00' W 051°00'0 0.0
2017-Sep-11 10:29S 00°00' W 051°00'0 0.0
2017-Sep-11 09:59S 00°00' W 051°00'0 0.0
2017-Sep-11 09:29S 00°00' W 051°00'0 0.0
2017-Sep-11 08:59S 00°00' W 051°00'0 0.0
2017-Sep-11 08:29S 00°00' W 051°00'0 0.1
2017-Sep-11 07:59S 00°00' W 051°00'0 0.0
2017-Sep-11 07:29S 00°00' W 051°00'0 0.1
2017-Sep-11 06:59S 00°00' W 051°00'0 0.2
2017-Sep-11 06:29N 00°00' W 051°00'0 0.3
2017-Sep-11 05:59N 00°00' W 051°00'0 0.1
2017-Sep-11 05:29N 00°00' W 051°00'0 0.0
2017-Sep-11 04:59N 00°00' W 051°00'0 0.0
2017-Sep-11 04:29N 00°00' W 051°00'0 0.1
2017-Sep-11 03:59N 00°00' W 051°00'0 0.0
2017-Sep-11 03:29N 00°00' W 051°00'0 0.0
2017-Sep-11 02:59N 00°00' W 051°00'0 0.0
2017-Sep-11 02:29N 00°00' W 051°00'0 0.0
2017-Sep-11 01:59N 00°00' W 051°00'0 0.0
2017-Sep-11 01:29N 00°00' W 051°00'0 0.0
2017-Sep-11 00:59N 00°00' W 051°00'0 0.1
2017-Sep-11 00:29N 00°00' W 051°00'0 0.3
2017-Sep-10 23:59N 00°00' W 051°00'0 0.1
2017-Sep-10 23:29N 00°00' W 051°00'0 0.1
2017-Sep-10 22:59S 00°00' W 051°00'0 0.0
2017-Sep-10 22:29S 00°00' W 051°00'0 0.0
2017-Sep-10 21:59S 00°00' W 051°00'  
Track history (hours):
 
Tides and Currents Weather Stations Pressure Air Temp Water Temp Dewpoint Dewpoint Depression Visibility Wind Speed Wind Dir Waves Ship Positions

Georgitsi

Last reported at 2017-Sep-20 21:49 UTC. Time now 2017-Sep-21 09:02 UTC.
Position N 00°11' W 050°46'.

Length 229 m; draft 11.6 m.

Type: Cargo ship. MMSI: 538004242.

Date/timePositionNaut miles runAvg speedWind from/ knotsBaromVisibWave heightAir tempDewpointWater temp
2017-Sep-20 21:49N 00°11' W 050°46'2 7.3
2017-Sep-20 21:30N 00°11' W 050°48'4 8.3
2017-Sep-20 21:00N 00°10' W 050°52'5 9.3
2017-Sep-20 20:30N 00°08' W 050°56'4 8.5
2017-Sep-20 20:00N 00°05' W 050°59'4 8.6
2017-Sep-20 19:31N 00°01' W 051°01'8 6.0
2017-Sep-20 18:13S 00°04' W 051°06'0 1.9
2017-Sep-20 18:00S 00°04' W 051°06'1 3.0
2017-Sep-20 17:30S 00°03' W 051°05'5 9.3
2017-Sep-20 17:00N 00°00' W 051°01'4 8.1
2017-Sep-20 16:30S 00°04' W 051°00'510.7
2017-Sep-20 16:00S 00°09' W 051°01'331 6.8
2017-Sep-18 14:58S 01°28' W 056°23'0 0.0
2017-Sep-18 14:28S 01°28' W 056°23'0 0.0
2017-Sep-18 13:52S 01°28' W 056°23'0 0.0
2017-Sep-18 13:28S 01°28' W 056°23'0 0.0
2017-Sep-18 12:58S 01°28' W 056°23'0 0.0
2017-Sep-18 12:25S 01°28' W 056°23'0 0.0
2017-Sep-18 11:58S 01°28' W 056°23'0 0.0
2017-Sep-18 11:28S 01°28' W 056°23'0 0.0
2017-Sep-18 10:58S 01°28' W 056°23'0 0.0
2017-Sep-18 10:28S 01°28' W 056°23'0 0.0
2017-Sep-18 09:58S 01°28' W 056°23'0 0.0
2017-Sep-18 09:28S 01°28' W 056°23'0 0.0
2017-Sep-18 08:58S 01°28' W 056°23'0 0.0
2017-Sep-18 08:28S 01°28' W 056°23'0 0.0
2017-Sep-18 07:58S 01°28' W 056°23'0 0.0
2017-Sep-18 07:28S 01°28' W 056°23'0 0.0
2017-Sep-18 06:55S 01°28' W 056°23'0 0.0
2017-Sep-18 06:28S 01°28' W 056°23'0 0.0
2017-Sep-18 05:58S 01°28' W 056°23'0 0.0
2017-Sep-18 05:28S 01°28' W 056°23'0 0.0
2017-Sep-18 04:55S 01°28' W 056°23'0 0.0
2017-Sep-18 04:28S 01°28' W 056°23'0 0.0
2017-Sep-18 03:58S 01°28' W 056°23'0 0.0
2017-Sep-18 03:22S 01°28' W 056°23'0 0.0
2017-Sep-18 02:58S 01°28' W 056°23'0 0.0
2017-Sep-18 02:25S 01°28' W 056°23'0 0.0
2017-Sep-18 01:58S 01°28' W 056°23'0 0.0
2017-Sep-18 01:25S 01°28' W 056°23'0 0.0
2017-Sep-18 00:58S 01°28' W 056°23'0 0.0
2017-Sep-18 00:28S 01°28' W 056°23'0 0.0
2017-Sep-17 23:58S 01°28' W 056°23'0 0.0
2017-Sep-17 23:25S 01°28' W 056°23'0 0.0
2017-Sep-17 22:58S 01°28' W 056°23'0 0.0
2017-Sep-17 22:28S 01°28' W 056°23'0 0.0
2017-Sep-17 21:58S 01°28' W 056°23'0 0.0
2017-Sep-17 21:28S 01°28' W 056°23'0 0.0
2017-Sep-17 20:58S 01°28' W 056°23'0 0.0
2017-Sep-17 20:28S 01°28' W 056°23'0 0.0
2017-Sep-17 19:58S 01°28' W 056°23'0 0.0
2017-Sep-17 19:25S 01°28' W 056°23'0 0.0
2017-Sep-17 18:58S 01°28' W 056°23'0 0.0
2017-Sep-17 18:25S 01°28' W 056°23'0 0.0
2017-Sep-17 17:58S 01°28' W 056°23'0 0.0
2017-Sep-17 17:25S 01°28' W 056°23'0 0.0
2017-Sep-17 16:58S 01°28' W 056°23'0 0.0
2017-Sep-17 16:28S 01°28' W 056°23'0 0.0
2017-Sep-17 15:58S 01°28' W 056°23'0 0.0
2017-Sep-17 15:28S 01°28' W 056°23'0 0.0
2017-Sep-17 14:58S 01°28' W 056°23'0 0.0
2017-Sep-17 14:28S 01°28' W 056°23'0 0.0
2017-Sep-17 13:58S 01°28' W 056°23'0 0.0
2017-Sep-17 13:25S 01°28' W 056°23'0 0.0
2017-Sep-17 12:55S 01°28' W 056°23'0 0.0
2017-Sep-17 12:28S 01°28' W 056°23'0 0.0
2017-Sep-17 11:52S 01°28' W 056°23'0 0.0
2017-Sep-17 11:28S 01°28' W 056°23'0 0.0
2017-Sep-17 10:58S 01°28' W 056°23'0 0.0
2017-Sep-17 10:28S 01°28' W 056°23'0 0.0
2017-Sep-17 09:58S 01°28' W 056°23'0 0.0
2017-Sep-17 09:28S 01°28' W 056°23'0 0.0
2017-Sep-17 08:58S 01°28' W 056°23'0 0.0
2017-Sep-17 08:25S 01°28' W 056°23'0 0.0
2017-Sep-17 07:58S 01°28' W 056°23'0 0.0
2017-Sep-17 07:25S 01°28' W 056°23'0 0.1
2017-Sep-17 06:59S 01°28' W 056°23'1 2.1
2017-Sep-17 06:30S 01°28' W 056°22'0 0.3
2017-Sep-17 06:00S 01°28' W 056°22'0 0.0
2017-Sep-17 05:30S 01°28' W 056°22'0 0.0
2017-Sep-17 04:57S 01°28' W 056°22'0 0.0
2017-Sep-17 04:30S 01°28' W 056°22'0 0.0
2017-Sep-17 04:00S 01°28' W 056°22'0 0.0
2017-Sep-17 03:30S 01°28' W 056°22'0 0.0
2017-Sep-17 03:00S 01°28' W 056°22'0 0.0
2017-Sep-17 02:24S 01°28' W 056°22'0 0.0
2017-Sep-17 02:00S 01°28' W 056°22'0 0.0
2017-Sep-17 01:27S 01°28' W 056°22'0 0.0
2017-Sep-17 01:00S 01°28' W 056°22'0 0.0
2017-Sep-17 00:30S 01°28' W 056°22'0 0.0
2017-Sep-16 23:57S 01°28' W 056°22'0 0.0
2017-Sep-16 23:30S 01°28' W 056°22'0 0.0
2017-Sep-16 23:00S 01°28' W 056°22'0 0.0
2017-Sep-16 22:24S 01°28' W 056°22'0 0.0
2017-Sep-16 22:00S 01°28' W 056°22'0 0.0
2017-Sep-16 21:30S 01°28' W 056°22'0 0.0
2017-Sep-16 20:48S 01°28' W 056°22'0 0.0
2017-Sep-16 20:30S 01°28' W 056°22'0 0.0
2017-Sep-16 20:00S 01°28' W 056°22'0 0.0
2017-Sep-16 19:30S 01°28' W 056°22'0 0.0
2017-Sep-16 18:57S 01°28' W 056°22'0 0.0
2017-Sep-16 18:30S 01°28' W 056°22'0 0.0
2017-Sep-16 18:00S 01°28' W 056°22'0 0.0
2017-Sep-16 17:27S 01°28' W 056°22'0 0.0
2017-Sep-16 17:00S 01°28' W 056°22'0 0.0
2017-Sep-16 16:30S 01°28' W 056°22'0 0.0
2017-Sep-16 16:00S 01°28' W 056°22'0 0.0
2017-Sep-16 15:30S 01°28' W 056°22'0 0.0
2017-Sep-16 15:00S 01°28' W 056°22'0 0.0
2017-Sep-16 14:24S 01°28' W 056°22'0 0.0
2017-Sep-16 13:57S 01°28' W 056°22'0 0.0
2017-Sep-16 13:30S 01°28' W 056°22'0 0.0
2017-Sep-16 13:00S 01°28' W 056°22'0 0.0
2017-Sep-16 12:30S 01°28' W 056°22'0 0.0
2017-Sep-16 12:00S 01°28' W 056°22'0 0.0
2017-Sep-16 11:30S 01°28' W 056°22'0 0.0
2017-Sep-16 11:00S 01°28' W 056°22'0 0.0
2017-Sep-16 10:27S 01°28' W 056°22'0 0.0
2017-Sep-16 10:00S 01°28' W 056°22'0 0.1
2017-Sep-16 09:30S 01°28' W 056°22'1 2.5
2017-Sep-16 09:00S 01°28' W 056°20'5 9.5
2017-Sep-16 08:30S 01°31' W 056°17'5 9.2
2017-Sep-16 08:00S 01°31' W 056°13'510.7
2017-Sep-16 07:30S 01°31' W 056°07'713.1
2017-Sep-16 07:00S 01°33' W 056°01'714.3
2017-Sep-16 06:30S 01°39' W 055°58'714.3
2017-Sep-16 06:00S 01°45' W 055°54'289 9.8
2017-Sep-15 00:34S 00°14' W 051°19'115.4
2017-Sep-15 00:30S 00°14' W 051°18'612.5
2017-Sep-15 00:00S 00°09' W 051°14'611.2
2017-Sep-14 23:30S 00°07' W 051°09'4 8.6
2017-Sep-14 23:00S 00°04' W 051°06'2 4.7
2017-Sep-14 22:30S 00°02' W 051°04'4 7.1
2017-Sep-14 22:00N 00°00' W 051°01'1 2.3
2017-Sep-14 21:27N 00°00' W 051°00'0 0.0
2017-Sep-14 20:57N 00°00' W 051°00'0 0.0
2017-Sep-14 20:27N 00°00' W 051°00'0 0.0
2017-Sep-14 19:57N 00°00' W 051°00'0 0.0
2017-Sep-14 19:27N 00°00' W 051°00'0 0.0
2017-Sep-14 18:57N 00°00' W 051°00'0 0.0
2017-Sep-14 18:27N 00°00' W 051°00'0 0.0
2017-Sep-14 17:57N 00°00' W 051°00'0 0.0
2017-Sep-14 17:21N 00°00' W 051°00'0 0.0
2017-Sep-14 16:57N 00°00' W 051°00'1 1.1
2017-Sep-14 16:27S 00°00' W 051°00'1 1.1
2017-Sep-14 15:57N 00°00' W 051°00'0 0.6
2017-Sep-14 15:27N 00°00' W 050°60'0 0.9
2017-Sep-14 14:57N 00°00' W 051°00'0 0.1
2017-Sep-14 14:27N 00°00' W 051°00'0 0.2
2017-Sep-14 13:57S 00°00' W 051°00'0 0.0
2017-Sep-14 13:27S 00°00' W 051°00'0 0.0
2017-Sep-14 12:57S 00°00' W 051°00'0 0.0
2017-Sep-14 12:27S 00°00' W 051°00'0 0.0
2017-Sep-14 11:57S 00°00' W 051°00'0 0.0
2017-Sep-14 11:24S 00°00' W 051°00'0 0.0
2017-Sep-14 10:48S 00°00' W 051°00'0 0.0
2017-Sep-14 10:30S 00°00' W 051°00'0 0.4
2017-Sep-14 10:00N 00°00' W 051°00'0 0.2
2017-Sep-14 09:30N 00°00' W 051°00'0 0.0
2017-Sep-14 07:12N 00°00' W 051°00'0 0.0
2017-Sep-14 07:00N 00°00' W 051°00'0 0.0
2017-Sep-14 06:30N 00°00' W 051°00'0 0.0
2017-Sep-14 06:00N 00°00' W 051°00'0 0.0
2017-Sep-14 05:30N 00°00' W 051°00'0 0.0
2017-Sep-14 05:00N 00°00' W 051°00'0 0.0
2017-Sep-14 04:30N 00°00' W 051°00'0 0.1
2017-Sep-14 04:00N 00°00' W 051°00'0 0.1
2017-Sep-14 03:24N 00°00' W 051°00'0 0.2
2017-Sep-14 03:00N 00°00' W 051°00'0 0.1
2017-Sep-14 02:24N 00°00' W 051°00'0 0.2
2017-Sep-14 02:00S 00°00' W 051°00'0 0.1
2017-Sep-14 01:30S 00°00' W 051°00'0 0.0
2017-Sep-14 01:00S 00°00' W 051°00'4 7.5
2017-Sep-14 00:30S 00°04' W 051°00'4 6.4
2017-Sep-13 23:55S 00°00' W 051°00'0 0.0
2017-Sep-13 23:25S 00°00' W 051°00'0 0.0
2017-Sep-13 22:49S 00°00' W 051°00'0 0.1
2017-Sep-13 21:37N 00°00' W 051°00'0 0.3
2017-Sep-13 21:26N 00°00' W 051°00'0 0.2
2017-Sep-13 20:55N 00°00' W 051°00'0 0.1
2017-Sep-13 20:25N 00°00' W 051°00'0 0.0
2017-Sep-13 19:55N 00°00' W 051°00'0 0.0
2017-Sep-13 19:25N 00°00' W 051°00'0 0.0
2017-Sep-13 18:49N 00°00' W 051°00'0 0.0
2017-Sep-13 18:25N 00°00' W 051°00'0 0.0
2017-Sep-13 17:55N 00°00' W 051°00'0 0.0
2017-Sep-13 17:25N 00°00' W 051°00'0 0.0
2017-Sep-13 16:55N 00°00' W 051°00'0 0.0
2017-Sep-13 16:25N 00°00' W 051°00'0 0.0
2017-Sep-13 15:55N 00°00' W 051°00'0 0.0
2017-Sep-13 15:25N 00°00' W 051°00'0 0.0
2017-Sep-13 14:55N 00°00' W 051°00'0 0.2
2017-Sep-13 14:25N 00°00' W 051°00'0 0.2
2017-Sep-13 13:55N 00°00' W 051°00'0 0.1
2017-Sep-13 13:25S 00°00' W 051°00'0 0.0
2017-Sep-13 12:55S 00°00' W 051°00'0 0.1
2017-Sep-13 12:25S 00°00' W 051°00'0 0.0
2017-Sep-13 11:55S 00°00' W 051°00'0 0.0
2017-Sep-13 11:25S 00°00' W 051°00'0 0.0
2017-Sep-13 10:01S 00°00' W 051°00'0 0.0
2017-Sep-13 09:55S 00°00' W 051°00'0 0.0
2017-Sep-13 09:25S 00°00' W 051°00'0 0.1
2017-Sep-13 08:55S 00°00' W 051°00'0 0.1
2017-Sep-13 08:25N 00°00' W 051°00'0 0.3
2017-Sep-13 07:55N 00°00' W 051°00'0 0.1
2017-Sep-13 07:25N 00°00' W 051°00'0 0.0
2017-Sep-13 06:55N 00°00' W 051°00'0 0.0
2017-Sep-13 06:25N 00°00' W 051°00'0 0.0
2017-Sep-13 05:55N 00°00' W 051°00'0 0.0
2017-Sep-13 05:25N 00°00' W 051°00'0 0.0
2017-Sep-13 04:55N 00°00' W 051°00'0 0.0
2017-Sep-13 04:25N 00°00' W 051°00'0 0.0
2017-Sep-13 03:55N 00°00' W 051°00'0 0.0
2017-Sep-13 03:25N 00°00' W 051°00'0 0.0
2017-Sep-13 02:55N 00°00' W 051°00'0 0.2
2017-Sep-13 02:25N 00°00' W 051°00'0 0.2
2017-Sep-13 01:55N 00°00' W 051°00'0 0.1
2017-Sep-13 01:25N 00°00' W 051°00'0 0.1
2017-Sep-13 00:55S 00°00' W 051°00'0 0.0
2017-Sep-13 00:25S 00°00' W 051°00'0 0.2
2017-Sep-12 23:55S 00°00' W 051°00'0 0.1
2017-Sep-12 23:25S 00°00' W 051°00'0 0.0
2017-Sep-12 22:55S 00°00' W 051°00'0 0.0
2017-Sep-12 22:25S 00°00' W 051°00'0 0.6
2017-Sep-12 21:55N 00°00' W 051°00'0 0.6
2017-Sep-12 21:25S 00°00' W 051°00'0 0.0
2017-Sep-12 20:55S 00°00' W 051°00'0 0.5
2017-Sep-12 20:25N 00°00' W 051°00'0 0.3
2017-Sep-12 19:55N 00°00' W 051°00'0 0.1
2017-Sep-12 19:25N 00°00' W 051°00'0 0.0
2017-Sep-12 18:55N 00°00' W 051°00'0 0.0
2017-Sep-12 18:25N 00°00' W 051°00'0 0.0
2017-Sep-12 17:55N 00°00' W 051°00'0 0.0
2017-Sep-12 17:31N 00°00' W 051°00'0 0.2
2017-Sep-12 16:57N 00°00' W 051°00'0 0.3
2017-Sep-12 16:27N 00°00' W 051°00'0 0.3
2017-Sep-12 15:57N 00°00' W 051°00'0 0.0
2017-Sep-12 14:29N 00°00' W 051°00'0 0.3
2017-Sep-12 13:59N 00°00' W 051°00'0 0.3
2017-Sep-12 13:29N 00°00' W 051°00'0 0.2
2017-Sep-12 12:59N 00°00' W 051°00'0 0.2
2017-Sep-12 12:29N 00°00' W 051°00'0 0.2
2017-Sep-12 11:59S 00°00' W 051°00'0 0.1
2017-Sep-12 11:29S 00°00' W 051°00'0 0.1
2017-Sep-12 10:59S 00°00' W 051°00'0 0.0
2017-Sep-12 10:29S 00°00' W 051°00'0 0.0
2017-Sep-12 09:59S 00°00' W 051°00'0 0.0
2017-Sep-12 09:29S 00°00' W 051°00'0 0.0
2017-Sep-12 08:59S 00°00' W 051°00'0 0.1
2017-Sep-12 08:29S 00°00' W 051°00'0 0.1
2017-Sep-12 07:59S 00°00' W 051°00'0 0.1
2017-Sep-12 07:29N 00°00' W 051°00'0 0.4
2017-Sep-12 06:59N 00°00' W 051°00'0 0.1
2017-Sep-12 06:29N 00°00' W 051°00'0 0.0
2017-Sep-12 05:59N 00°00' W 051°00'0 0.0
2017-Sep-12 05:29N 00°00' W 051°00'0 0.0
2017-Sep-12 04:59N 00°00' W 051°00'0 0.0
2017-Sep-12 04:29N 00°00' W 051°00'0 0.2
2017-Sep-12 03:59N 00°00' W 051°00'0 0.0
2017-Sep-12 03:29N 00°00' W 051°00'0 0.0
2017-Sep-12 02:59N 00°00' W 051°00'0 0.0
2017-Sep-12 02:29N 00°00' W 051°00'0 0.0
2017-Sep-12 01:59N 00°00' W 051°00'0 0.1
2017-Sep-12 01:29N 00°00' W 051°00'0 0.1
2017-Sep-12 00:59N 00°00' W 051°00'2 3.6
2017-Sep-12 00:27S 00°01' W 050°59'2 3.3
2017-Sep-11 23:59S 00°01' W 051°00'1 1.9
2017-Sep-11 23:29S 00°00' W 051°00'0 0.0
2017-Sep-11 22:53S 00°00' W 051°00'0 0.0
2017-Sep-11 22:29S 00°00' W 051°00'0 0.0
2017-Sep-11 21:59S 00°00' W 051°00'0 0.1
2017-Sep-11 21:29S 00°00' W 051°00'0 0.0
2017-Sep-11 20:17S 00°00' W 051°00'0 0.3
2017-Sep-11 19:41N 00°00' W 051°00'0 0.9
2017-Sep-11 19:29S 00°00' W 051°00'0 0.4
2017-Sep-11 18:59N 00°00' W 051°00'0 0.2
2017-Sep-11 18:29N 00°00' W 051°00'0 0.1
2017-Sep-11 17:59N 00°00' W 051°00'0 0.0
2017-Sep-11 17:29N 00°00' W 051°00'0 0.0
2017-Sep-11 16:53N 00°00' W 051°00'0 0.0
2017-Sep-11 16:29N 00°00' W 051°00'0 0.0
2017-Sep-11 15:59N 00°00' W 051°00'0 0.0
2017-Sep-11 15:29N 00°00' W 051°00'0 0.0
2017-Sep-11 14:59N 00°00' W 051°00'0 0.0
2017-Sep-11 14:29N 00°00' W 051°00'0 0.0
2017-Sep-11 13:59N 00°00' W 051°00'0 0.0
2017-Sep-11 13:17N 00°00' W 051°00'0 0.0
2017-Sep-11 12:59N 00°00' W 051°00'0 0.0
2017-Sep-11 12:29N 00°00' W 051°00'0 0.2
2017-Sep-11 11:59N 00°00' W 051°00'0 0.4
2017-Sep-11 11:29S 00°00' W 051°00'0 0.1
2017-Sep-11 10:53S 00°00' W 051°00'0 0.0
2017-Sep-11 10:29S 00°00' W 051°00'0 0.0
2017-Sep-11 09:59S 00°00' W 051°00'0 0.0
2017-Sep-11 09:29S 00°00' W 051°00'0 0.0
2017-Sep-11 08:59S 00°00' W 051°00'0 0.0
2017-Sep-11 08:29S 00°00' W 051°00'0 0.1
2017-Sep-11 07:59S 00°00' W 051°00'0 0.0
2017-Sep-11 07:29S 00°00' W 051°00'0 0.1
2017-Sep-11 06:59S 00°00' W 051°00'0 0.2
2017-Sep-11 06:29N 00°00' W 051°00'0 0.3
2017-Sep-11 05:59N 00°00' W 051°00'0 0.1
2017-Sep-11 05:29N 00°00' W 051°00'0 0.0
2017-Sep-11 04:59N 00°00' W 051°00'0 0.0
2017-Sep-11 04:29N 00°00' W 051°00'0 0.1
2017-Sep-11 03:59N 00°00' W 051°00'0 0.0
2017-Sep-11 03:29N 00°00' W 051°00'0 0.0
2017-Sep-11 02:59N 00°00' W 051°00'0 0.0
2017-Sep-11 02:29N 00°00' W 051°00'0 0.0
2017-Sep-11 01:59N 00°00' W 051°00'0 0.0
2017-Sep-11 01:29N 00°00' W 051°00'0 0.0
2017-Sep-11 00:59N 00°00' W 051°00'0 0.1
2017-Sep-11 00:29N 00°00' W 051°00'0 0.3
2017-Sep-10 23:59N 00°00' W 051°00'0 0.1
2017-Sep-10 23:29N 00°00' W 051°00'0 0.1
2017-Sep-10 22:59S 00°00' W 051°00'0 0.0
2017-Sep-10 22:29S 00°00' W 051°00'0 0.0
2017-Sep-10 21:59S 00°00' W 051°00'  

Dump ship's entire track history